createdAt,value
2018-06-08T00:01:39.461Z,7.37
2018-06-08T00:04:08.129Z,6.90
2018-06-08T00:06:36.823Z,6.90
2018-06-08T00:09:08.293Z,6.83
2018-06-08T00:11:36.864Z,7.03
2018-06-08T00:14:05.528Z,7.27
2018-06-08T00:16:34.257Z,6.80
2018-06-08T00:19:02.948Z,6.47
2018-06-08T00:21:31.616Z,7.03
2018-06-08T00:24:00.706Z,6.90
2018-06-08T00:26:29.609Z,6.80
2018-06-08T00:28:58.402Z,6.30
2018-06-08T00:31:27.612Z,6.70
2018-06-08T00:33:56.890Z,7.63
2018-06-08T00:36:25.539Z,7.10
2018-06-08T00:38:54.198Z,8.10
2018-06-08T00:41:22.507Z,7.90
2018-06-08T00:43:51.143Z,7.77
2018-06-08T00:46:20.038Z,7.97
2018-06-08T00:48:48.714Z,7.53
2018-06-08T00:51:17.429Z,8.27
2018-06-08T00:53:46.093Z,8.10
2018-06-08T00:56:25.893Z,8.37
2018-06-08T00:58:54.607Z,8.00
2018-06-08T01:01:23.265Z,8.90
2018-06-08T01:03:52.097Z,8.33
2018-06-08T01:06:20.840Z,8.63
2018-06-08T01:08:49.510Z,8.13
2018-06-08T01:11:18.206Z,8.10
2018-06-08T01:13:46.862Z,6.97
2018-06-08T01:16:15.555Z,7.00
2018-06-08T01:18:44.348Z,7.33
2018-06-08T01:21:13.044Z,7.30
2018-06-08T01:23:41.747Z,7.13
2018-06-08T01:26:10.432Z,6.70
2018-06-08T01:28:38.990Z,7.20
2018-06-08T01:31:07.555Z,7.00
2018-06-08T01:33:36.131Z,6.30
2018-06-08T01:36:04.749Z,6.27
2018-06-08T01:38:33.331Z,6.23
2018-06-08T01:41:01.987Z,6.03
2018-06-08T01:43:30.680Z,6.20
2018-06-08T01:45:59.229Z,6.30
2018-06-08T01:48:27.873Z,6.17
2018-06-08T01:50:56.466Z,6.53
2018-06-08T01:53:25.040Z,6.60
2018-06-08T01:55:53.702Z,6.20
2018-06-08T01:58:22.296Z,6.70
2018-06-08T02:00:50.887Z,6.37
2018-06-08T02:03:19.498Z,7.00
2018-06-08T02:05:48.194Z,5.90
2018-06-08T02:08:16.835Z,6.83
2018-06-08T02:10:45.560Z,6.93
2018-06-08T02:13:14.178Z,6.37
2018-06-08T02:15:42.750Z,7.30
2018-06-08T02:18:11.368Z,7.40
2018-06-08T02:20:40.100Z,7.13
2018-06-08T02:23:08.772Z,7.70
2018-06-08T02:25:37.339Z,8.13
2018-06-08T02:28:05.917Z,7.27
2018-06-08T02:30:34.484Z,7.70
2018-06-08T02:33:03.157Z,7.90
2018-06-08T02:35:31.826Z,7.30
2018-06-08T02:38:00.422Z,7.40
2018-06-08T02:40:29.085Z,6.80
2018-06-08T02:42:57.652Z,7.13
2018-06-08T02:45:26.226Z,7.23
2018-06-08T02:47:54.881Z,6.93
2018-06-08T02:50:23.525Z,7.70
2018-06-08T02:52:52.222Z,6.57
2018-06-08T02:55:20.805Z,7.63
2018-06-08T02:57:49.413Z,7.30
2018-06-08T03:00:17.970Z,7.67
2018-06-08T03:02:46.585Z,6.87
2018-06-08T03:05:15.266Z,6.60
2018-06-08T03:07:43.928Z,6.60
2018-06-08T03:10:12.557Z,7.27
2018-06-08T03:12:41.180Z,7.50
2018-06-08T03:15:09.830Z,7.90
2018-06-08T03:17:38.424Z,7.73
2018-06-08T03:20:07.051Z,7.80
2018-06-08T03:22:35.695Z,8.33
2018-06-08T03:25:04.282Z,7.87
2018-06-08T03:27:32.875Z,7.63
2018-06-08T03:30:01.532Z,8.40
2018-06-08T03:32:30.153Z,7.67
2018-06-08T03:34:58.665Z,7.37
2018-06-08T03:37:27.305Z,7.57
2018-06-08T03:39:55.841Z,7.50
2018-06-08T03:42:24.452Z,7.67
2018-06-08T03:44:53.089Z,7.70
2018-06-08T03:47:21.709Z,7.07
2018-06-08T03:49:50.283Z,7.57
2018-06-08T03:52:18.868Z,8.17
2018-06-08T03:54:47.486Z,8.67
2018-06-08T03:57:16.131Z,7.83
2018-06-08T03:59:44.766Z,7.03
2018-06-08T04:02:13.401Z,6.67
2018-06-08T04:04:42.034Z,7.23
2018-06-08T04:07:10.566Z,6.90
2018-06-08T04:09:39.184Z,7.20
2018-06-08T04:12:07.885Z,6.60
2018-06-08T04:14:36.482Z,6.50
2018-06-08T04:17:05.077Z,6.40
2018-06-08T04:19:33.749Z,6.37
2018-06-08T04:22:02.437Z,7.07
2018-06-08T04:24:30.983Z,7.10
2018-06-08T04:26:59.685Z,7.27
2018-06-08T04:29:28.322Z,6.63
2018-06-08T04:31:57.587Z,7.30
2018-06-08T04:34:26.613Z,6.70
2018-06-08T04:36:55.144Z,6.80
2018-06-08T04:39:24.217Z,6.30
2018-06-08T04:41:52.778Z,6.43
2018-06-08T04:44:21.400Z,6.53
2018-06-08T04:46:50.085Z,6.77
2018-06-08T04:49:18.637Z,7.10
2018-06-08T04:51:47.858Z,6.10
2018-06-08T04:54:16.539Z,6.30
2018-06-08T04:56:45.215Z,6.43
2018-06-08T04:59:13.942Z,6.50
2018-06-08T05:01:42.719Z,5.70
2018-06-08T05:04:11.787Z,6.20
2018-06-08T05:06:40.435Z,5.80
2018-06-08T05:09:09.079Z,5.33
2018-06-08T05:11:37.726Z,6.10
2018-06-08T05:14:06.344Z,5.50
2018-06-08T05:16:34.889Z,6.00
2018-06-08T05:19:03.505Z,6.50
2018-06-08T05:21:32.296Z,5.90
2018-06-08T05:24:01.058Z,6.27
2018-06-08T05:26:29.744Z,6.20
2018-06-08T05:28:58.456Z,5.50
2018-06-08T05:31:27.087Z,6.70
2018-06-08T05:33:55.657Z,6.10
2018-06-08T05:36:24.269Z,6.10
2018-06-08T05:38:52.822Z,6.23
2018-06-08T05:41:21.443Z,6.70
2018-06-08T05:43:50.073Z,6.30
2018-06-08T05:46:18.716Z,6.30
2018-06-08T05:48:47.269Z,6.50
2018-06-08T05:51:15.915Z,7.17
2018-06-08T05:53:44.471Z,6.23
2018-06-08T05:56:13.127Z,7.27
2018-06-08T05:58:41.718Z,7.43
2018-06-08T06:01:10.429Z,7.40
2018-06-08T06:03:38.986Z,7.27
2018-06-08T06:06:07.569Z,8.07
2018-06-08T06:08:36.298Z,7.20
2018-06-08T06:11:04.906Z,6.73
2018-06-08T06:13:33.546Z,6.60
2018-06-08T06:16:02.187Z,6.87
2018-06-08T06:18:30.824Z,6.80
2018-06-08T06:21:00.051Z,6.43
2018-06-08T06:23:28.764Z,7.33
2018-06-08T06:25:57.442Z,6.67
2018-06-08T06:28:26.209Z,6.33
2018-06-08T06:30:54.929Z,6.17
2018-06-08T06:33:23.597Z,6.47
2018-06-08T06:35:52.277Z,7.37
2018-06-08T06:38:20.978Z,6.50
2018-06-08T06:40:49.621Z,6.87
2018-06-08T06:43:18.269Z,6.20
2018-06-08T06:45:46.933Z,6.23
2018-06-08T06:48:15.622Z,7.17
2018-06-08T06:50:44.266Z,6.57
2018-06-08T06:53:12.903Z,6.43
2018-06-08T06:55:41.653Z,6.27
2018-06-08T06:58:10.489Z,6.40
2018-06-08T07:00:39.178Z,6.80
2018-06-08T07:03:07.918Z,7.00
2018-06-08T07:05:36.834Z,6.70
2018-06-08T07:08:05.624Z,6.10
2018-06-08T07:10:34.274Z,6.00
2018-06-08T07:13:03.102Z,5.60
2018-06-08T07:15:39.381Z,5.77
2018-06-08T07:18:08.549Z,6.60
2018-06-08T07:20:38.416Z,6.20
2018-06-08T07:23:07.318Z,6.77
2018-06-08T07:25:36.028Z,6.57
2018-06-08T07:28:04.781Z,6.00
2018-06-08T07:30:33.376Z,7.00
2018-06-08T07:41:42.796Z,6.20
2018-06-08T07:44:11.561Z,5.70
2018-06-08T07:46:40.218Z,5.43
2018-06-08T07:49:08.856Z,6.57
2018-06-08T07:51:37.496Z,6.17
2018-06-08T07:54:06.177Z,6.40
2018-06-08T07:56:34.825Z,6.03
2018-06-08T07:59:03.566Z,6.20
2018-06-08T08:01:32.240Z,5.67
2018-06-08T08:04:00.986Z,5.57
2018-06-08T08:06:29.697Z,5.50
2018-06-08T08:08:58.405Z,6.10
2018-06-08T08:11:27.032Z,6.80
2018-06-08T08:13:55.655Z,5.63
2018-06-08T08:16:24.325Z,6.30
2018-06-08T08:18:53.008Z,6.20
2018-06-08T08:21:21.577Z,6.87
2018-06-08T08:23:50.205Z,6.60
2018-06-08T08:26:18.885Z,6.20
2018-06-08T08:28:47.555Z,6.30
2018-06-08T08:31:16.238Z,6.63
2018-06-08T08:33:44.911Z,6.23
2018-06-08T08:36:13.549Z,6.37
2018-06-08T08:38:42.121Z,7.53
2018-06-08T08:41:10.901Z,7.23
2018-06-08T08:43:39.508Z,6.60
2018-06-08T08:46:08.160Z,5.80
2018-06-08T08:48:36.841Z,6.57
2018-06-08T08:51:05.490Z,6.93
2018-06-08T08:53:34.158Z,9.00
2018-06-08T08:56:02.814Z,8.27
2018-06-08T08:58:31.451Z,6.60
2018-06-08T09:01:00.026Z,8.50
2018-06-08T09:03:28.873Z,8.13
2018-06-08T09:05:57.521Z,7.53
2018-06-08T09:08:26.190Z,8.37
2018-06-08T09:10:54.874Z,6.83
2018-06-08T09:13:23.470Z,8.17
2018-06-08T09:15:52.073Z,7.63
2018-06-08T09:18:20.725Z,8.37
2018-06-08T09:20:49.367Z,7.93
2018-06-08T09:23:17.965Z,7.67
2018-06-08T09:25:46.501Z,7.43
2018-06-08T09:28:15.215Z,7.67
2018-06-08T09:30:43.786Z,8.53
2018-06-08T09:33:12.497Z,7.33
2018-06-08T09:35:41.048Z,6.80
2018-06-08T09:38:09.541Z,8.03
2018-06-08T09:40:38.112Z,7.60
2018-06-08T09:43:06.629Z,8.37
2018-06-08T09:45:35.280Z,7.80
2018-06-08T09:48:04.026Z,8.00
2018-06-08T09:50:32.697Z,9.27
2018-06-08T09:53:01.268Z,9.00
2018-06-08T09:55:29.856Z,8.07
2018-06-08T09:57:58.107Z,9.17
2018-06-08T10:00:32.131Z,8.57
2018-06-08T10:03:00.688Z,7.43
2018-06-08T10:05:29.328Z,8.23
2018-06-08T10:07:57.981Z,6.33
2018-06-08T10:10:26.589Z,6.93
2018-06-08T10:12:55.241Z,7.00
2018-06-08T10:15:23.877Z,6.53
2018-06-08T10:17:52.564Z,6.50
2018-06-08T10:20:21.460Z,6.53
2018-06-08T10:22:50.062Z,6.00
2018-06-08T10:25:18.780Z,7.33
2018-06-08T10:27:47.415Z,6.17
2018-06-08T10:30:16.061Z,7.40
2018-06-08T10:32:44.754Z,6.80
2018-06-08T10:35:28.103Z,6.47
2018-06-08T10:37:56.797Z,6.60
2018-06-08T10:40:25.487Z,6.27
2018-06-08T10:42:54.282Z,6.80
2018-06-08T10:45:23.333Z,6.17
2018-06-08T10:47:51.991Z,5.77
2018-06-08T10:50:20.661Z,5.80
2018-06-08T10:52:49.382Z,5.30
2018-06-08T10:55:18.045Z,5.33
2018-06-08T10:57:46.698Z,4.97
2018-06-08T11:00:15.332Z,5.77
2018-06-08T11:02:44.001Z,5.90
2018-06-08T11:05:12.575Z,5.80
2018-06-08T11:07:40.851Z,6.33
2018-06-08T11:10:09.558Z,5.97
2018-06-08T11:12:38.174Z,6.23
2018-06-08T11:15:06.929Z,6.43
2018-06-08T11:17:35.602Z,6.80
2018-06-08T11:20:04.331Z,7.13
2018-06-08T11:22:32.913Z,6.87
2018-06-08T11:25:01.573Z,6.57
2018-06-08T11:27:30.246Z,6.80
2018-06-08T11:29:58.866Z,6.13
2018-06-08T11:32:27.401Z,6.53
2018-06-08T11:34:55.622Z,5.70
2018-06-08T11:37:24.132Z,6.47
2018-06-08T11:39:52.681Z,6.77
2018-06-08T11:42:21.244Z,6.70
2018-06-08T11:44:49.903Z,7.30
2018-06-08T11:47:19.449Z,6.73
2018-06-08T11:49:49.202Z,7.40
2018-06-08T11:52:19.214Z,6.83
2018-06-08T11:54:47.781Z,6.50
2018-06-08T11:57:16.434Z,7.07
2018-06-08T11:59:45.065Z,6.97
2018-06-08T12:02:13.368Z,6.20
2018-06-08T12:04:41.943Z,5.23
2018-06-08T12:07:10.522Z,6.10
2018-06-08T12:09:39.425Z,5.33
2018-06-08T12:12:08.105Z,5.23
2018-06-08T12:14:36.785Z,5.87
2018-06-08T12:17:05.463Z,6.50
2018-06-08T12:19:34.975Z,5.97
2018-06-08T12:22:03.505Z,6.63
2018-06-08T12:24:32.251Z,6.07
2018-06-08T12:27:00.950Z,5.47
2018-06-08T12:29:29.640Z,5.13
2018-06-08T12:31:58.232Z,5.10
2018-06-08T12:34:26.955Z,5.57
2018-06-08T12:36:55.781Z,5.77
2018-06-08T12:39:24.569Z,5.43
2018-06-08T12:41:53.154Z,5.33
2018-06-08T12:44:21.834Z,5.97
2018-06-08T12:46:50.478Z,6.20
2018-06-08T12:49:19.148Z,6.57
2018-06-08T12:51:47.741Z,6.10
2018-06-08T12:54:16.463Z,5.43
2018-06-08T12:56:45.139Z,6.37
2018-06-08T12:59:13.728Z,5.67
2018-06-08T13:01:42.337Z,5.70
2018-06-08T13:04:10.995Z,6.33
2018-06-08T13:06:39.699Z,5.27
2018-06-08T13:09:08.377Z,5.50
2018-06-08T13:11:36.977Z,5.30
2018-06-08T13:14:05.656Z,5.67
2018-06-08T13:16:34.242Z,4.90
2018-06-08T13:19:02.922Z,4.73
2018-06-08T13:21:31.591Z,5.63
2018-06-08T13:24:00.534Z,5.10
2018-06-08T13:26:29.161Z,5.43
2018-06-08T13:28:57.826Z,5.53
2018-06-08T13:31:26.101Z,6.10
2018-06-08T13:33:56.925Z,5.10
